createdAt,value
2018-12-23T00:02:25.560Z,99.90
2018-12-23T00:04:53.857Z,99.90
2018-12-23T00:07:22.106Z,99.90
2018-12-23T00:09:50.368Z,99.90
2018-12-23T00:12:18.628Z,99.90
2018-12-23T00:14:46.879Z,99.90
2018-12-23T00:17:15.192Z,99.90
2018-12-23T00:19:43.452Z,99.90
2018-12-23T00:22:11.843Z,99.90
2018-12-23T00:24:40.076Z,99.90
2018-12-23T00:27:08.344Z,99.90
2018-12-23T00:29:36.624Z,99.90
2018-12-23T00:32:04.870Z,99.90
2018-12-23T00:34:33.119Z,99.90
2018-12-23T00:37:01.402Z,99.90
2018-12-23T00:39:29.771Z,99.90
2018-12-23T00:41:58.511Z,99.90
2018-12-23T00:44:26.761Z,99.90
2018-12-23T00:46:55.064Z,99.90
2018-12-23T00:49:23.342Z,99.90
2018-12-23T00:51:51.585Z,99.90
2018-12-23T00:54:19.849Z,99.90
2018-12-23T00:56:48.206Z,99.90
2018-12-23T00:59:16.501Z,99.90
2018-12-23T01:01:44.771Z,99.90
2018-12-23T01:04:12.993Z,99.90
2018-12-23T01:06:41.245Z,99.90
2018-12-23T01:09:09.466Z,99.90
2018-12-23T01:11:37.696Z,99.90
2018-12-23T01:14:05.947Z,99.90
2018-12-23T01:16:34.171Z,99.90
2018-12-23T01:19:02.437Z,99.90
2018-12-23T01:21:30.654Z,99.90
2018-12-23T01:23:58.939Z,99.90
2018-12-23T01:26:27.193Z,99.90
2018-12-23T01:28:55.560Z,99.90
2018-12-23T01:31:23.928Z,99.90
2018-12-23T01:33:52.139Z,99.90
2018-12-23T01:36:20.406Z,99.90
2018-12-23T01:38:48.660Z,99.90
2018-12-23T01:41:16.918Z,99.90
2018-12-23T01:43:49.256Z,99.90
2018-12-23T01:46:17.571Z,99.90
2018-12-23T01:48:45.776Z,99.90
2018-12-23T01:51:14.053Z,99.90
2018-12-23T01:53:42.436Z,99.90
2018-12-23T01:56:10.702Z,99.90
2018-12-23T01:58:39.043Z,99.90
2018-12-23T02:01:07.294Z,99.90
2018-12-23T02:03:35.750Z,99.90
2018-12-23T02:06:03.997Z,99.90
2018-12-23T02:08:32.208Z,99.90
2018-12-23T02:11:00.553Z,99.90
2018-12-23T02:13:28.832Z,99.90
2018-12-23T02:15:57.126Z,99.90
2018-12-23T02:18:25.426Z,99.90
2018-12-23T02:20:53.779Z,99.90
2018-12-23T02:23:22.036Z,99.90
2018-12-23T02:25:50.316Z,99.90
2018-12-23T02:28:18.542Z,99.90
2018-12-23T02:30:46.774Z,99.90
2018-12-23T02:33:15.041Z,99.90
2018-12-23T02:35:43.270Z,99.90
2018-12-23T02:38:11.507Z,99.90
2018-12-23T02:40:39.841Z,99.90
2018-12-23T02:43:08.171Z,99.90
2018-12-23T02:45:36.388Z,99.90
2018-12-23T02:48:04.720Z,99.90
2018-12-23T02:50:33.000Z,99.90
2018-12-23T02:53:01.267Z,99.90
2018-12-23T02:55:29.537Z,99.90
2018-12-23T02:57:57.800Z,99.90
2018-12-23T03:00:26.030Z,99.90
2018-12-23T03:02:54.254Z,99.90
2018-12-23T03:05:22.508Z,99.90
2018-12-23T03:07:50.695Z,99.90
2018-12-23T03:10:18.962Z,99.90
2018-12-23T03:12:47.180Z,99.90
2018-12-23T03:15:15.450Z,99.90
2018-12-23T03:17:43.705Z,99.90
2018-12-23T03:20:11.951Z,99.90
2018-12-23T03:22:40.178Z,99.90
2018-12-23T03:25:08.631Z,99.90
2018-12-23T03:27:37.026Z,99.90
2018-12-23T03:30:05.473Z,99.90
2018-12-23T03:32:33.821Z,99.90
2018-12-23T03:35:02.110Z,99.90
2018-12-23T03:37:30.339Z,99.90
2018-12-23T03:39:58.607Z,99.90
2018-12-23T03:42:26.862Z,99.90
2018-12-23T03:44:55.139Z,99.90
2018-12-23T03:47:23.383Z,99.90
2018-12-23T03:49:51.636Z,99.90
2018-12-23T03:52:19.873Z,99.90
2018-12-23T03:54:48.150Z,99.90
2018-12-23T03:57:16.453Z,99.90
2018-12-23T03:59:44.794Z,99.90
2018-12-23T04:02:13.047Z,99.90
2018-12-23T04:04:41.294Z,99.90
2018-12-23T04:07:09.638Z,99.90
2018-12-23T04:09:37.917Z,99.90
2018-12-23T04:12:06.147Z,99.90
2018-12-23T04:14:34.385Z,99.90
2018-12-23T04:17:02.619Z,99.90
2018-12-23T04:19:31.252Z,99.90
2018-12-23T04:21:59.494Z,99.90
2018-12-23T04:24:27.794Z,99.90
2018-12-23T04:26:56.067Z,99.90
2018-12-23T04:29:24.329Z,99.90
2018-12-23T04:31:52.582Z,99.90
2018-12-23T04:37:31.969Z,99.90
2018-12-23T04:40:01.464Z,99.90
2018-12-23T04:42:31.102Z,99.90
2018-12-23T04:45:00.981Z,99.90
2018-12-23T04:47:30.750Z,99.90
2018-12-23T04:50:00.413Z,99.90
2018-12-23T04:52:29.735Z,99.90
2018-12-23T04:54:59.729Z,99.90
2018-12-23T04:57:29.208Z,99.90
2018-12-23T04:59:59.037Z,99.90
2018-12-23T05:02:28.397Z,99.90
2018-12-23T05:04:57.792Z,99.90
2018-12-23T05:07:27.170Z,99.90
2018-12-23T05:09:56.603Z,99.90
2018-12-23T05:12:36.213Z,99.90
2018-12-23T05:15:05.921Z,99.90
2018-12-23T05:17:35.316Z,99.90
2018-12-23T05:20:04.893Z,99.90
2018-12-23T05:22:34.826Z,99.90
2018-12-23T05:25:04.694Z,99.90
2018-12-23T05:27:34.080Z,99.90
2018-12-23T05:30:03.467Z,99.90
2018-12-23T05:32:32.895Z,99.90
2018-12-23T05:35:02.407Z,99.90
2018-12-23T05:37:31.770Z,99.90
2018-12-23T05:40:01.176Z,99.90
2018-12-23T05:42:30.916Z,99.90
2018-12-23T05:45:00.885Z,99.90
2018-12-23T05:47:30.284Z,99.90
2018-12-23T05:49:59.685Z,99.90
2018-12-23T05:52:29.058Z,99.90
2018-12-23T05:54:58.463Z,99.90
2018-12-23T05:57:27.929Z,99.90
2018-12-23T05:59:57.209Z,99.90
2018-12-23T06:02:26.506Z,99.90
2018-12-23T06:04:56.103Z,99.90
2018-12-23T06:07:25.830Z,99.90
2018-12-23T06:09:55.570Z,99.90
2018-12-23T06:12:25.383Z,99.90
2018-12-23T06:14:55.220Z,99.90
2018-12-23T06:17:24.660Z,99.90
2018-12-23T06:19:54.124Z,99.90
2018-12-23T06:22:23.772Z,99.90
2018-12-23T06:24:53.141Z,99.90
2018-12-23T06:27:22.899Z,99.90
2018-12-23T06:29:52.410Z,99.90
2018-12-23T06:32:21.791Z,99.90
2018-12-23T06:34:51.861Z,99.90
2018-12-23T06:37:21.161Z,99.90
2018-12-23T06:39:50.432Z,99.90
2018-12-23T06:42:20.497Z,99.90
2018-12-23T06:44:49.836Z,99.90
2018-12-23T06:47:19.136Z,99.90
2018-12-23T06:49:49.589Z,99.90
2018-12-23T06:52:19.004Z,99.90
2018-12-23T06:54:50.676Z,99.90
2018-12-23T06:57:19.985Z,99.90
2018-12-23T06:59:50.157Z,99.90
2018-12-23T07:02:19.593Z,99.90
2018-12-23T07:04:49.264Z,99.90
2018-12-23T07:07:19.026Z,99.90
2018-12-23T07:09:48.584Z,99.90
2018-12-23T07:12:18.016Z,99.90
2018-12-23T07:14:47.372Z,99.90
2018-12-23T07:17:16.799Z,99.90
2018-12-23T07:19:46.582Z,99.90
2018-12-23T07:22:15.952Z,99.90
2018-12-23T07:24:45.270Z,99.90
2018-12-23T07:27:14.580Z,99.90
2018-12-23T07:29:44.006Z,99.90
2018-12-23T07:32:13.715Z,99.90
2018-12-23T07:34:43.104Z,99.90
2018-12-23T07:37:13.027Z,99.90
2018-12-23T07:39:42.851Z,99.90
2018-12-23T07:42:12.656Z,99.90
2018-12-23T07:44:42.570Z,99.90
2018-12-23T07:47:11.874Z,99.90
2018-12-23T07:49:41.391Z,99.90
2018-12-23T07:52:12.253Z,99.90
2018-12-23T07:54:41.642Z,99.90
2018-12-23T07:57:11.002Z,99.90
2018-12-23T07:59:40.691Z,99.90
2018-12-23T08:02:10.165Z,99.90
2018-12-23T08:04:39.924Z,99.90
2018-12-23T08:07:10.066Z,99.90
2018-12-23T08:09:39.443Z,99.90
2018-12-23T08:12:09.534Z,99.90
2018-12-23T08:14:38.903Z,99.90
2018-12-23T08:17:08.598Z,99.90
2018-12-23T08:19:38.353Z,99.90
2018-12-23T08:22:07.720Z,99.90
2018-12-23T08:24:37.091Z,99.90
2018-12-23T08:27:06.567Z,99.90
2018-12-23T08:29:35.958Z,99.90
2018-12-23T08:32:06.026Z,99.90
2018-12-23T08:34:35.727Z,99.90
2018-12-23T08:37:05.234Z,99.90
2018-12-23T08:39:36.215Z,99.90
2018-12-23T08:42:05.841Z,99.90
2018-12-23T08:44:35.254Z,99.70
2018-12-23T08:47:04.744Z,99.60
2018-12-23T08:49:34.061Z,99.60
2018-12-23T08:52:03.739Z,99.40
2018-12-23T08:54:33.233Z,99.30
2018-12-23T08:57:03.189Z,99.20
2018-12-23T08:59:32.723Z,99.00
2018-12-23T09:02:02.034Z,98.90
2018-12-23T09:04:31.767Z,98.70
2018-12-23T09:07:01.180Z,98.60
2018-12-23T09:09:30.976Z,98.40
2018-12-23T09:12:00.472Z,98.30
2018-12-23T09:14:29.940Z,98.20
2018-12-23T09:16:59.425Z,98.20
2018-12-23T09:19:28.832Z,98.00
2018-12-23T09:21:58.593Z,98.00
2018-12-23T09:24:28.448Z,97.90
2018-12-23T09:26:58.385Z,97.70
2018-12-23T09:29:28.397Z,97.70
2018-12-23T09:31:58.611Z,97.50
2018-12-23T09:34:28.169Z,97.60
2018-12-23T09:36:57.737Z,97.40
2018-12-23T09:39:27.609Z,97.40
2018-12-23T09:41:58.119Z,97.50
2018-12-23T09:44:27.687Z,97.00
2018-12-23T09:46:57.290Z,97.00
2018-12-23T09:49:26.754Z,97.10
2018-12-23T09:51:56.259Z,97.10
2018-12-23T09:54:26.347Z,97.30
2018-12-23T09:57:08.174Z,97.60
2018-12-23T09:59:38.685Z,97.50
2018-12-23T10:02:09.132Z,97.50
2018-12-23T10:04:39.111Z,97.40
2018-12-23T10:07:09.197Z,97.30
2018-12-23T10:09:39.222Z,97.30
2018-12-23T10:12:09.289Z,97.20
2018-12-23T10:14:39.556Z,97.20
2018-12-23T10:17:09.727Z,97.10
2018-12-23T10:19:40.250Z,97.10
2018-12-23T10:22:10.287Z,97.10
2018-12-23T10:24:40.167Z,97.10
2018-12-23T10:27:09.927Z,97.10
2018-12-23T10:29:40.009Z,97.10
2018-12-23T10:32:11.309Z,97.10
2018-12-23T10:34:41.739Z,97.10
2018-12-23T10:37:11.895Z,97.10
2018-12-23T10:39:42.010Z,97.10
2018-12-23T10:42:12.342Z,97.10
2018-12-23T10:44:42.369Z,97.00
2018-12-23T10:47:13.698Z,97.10
2018-12-23T10:49:43.724Z,97.00
2018-12-23T10:52:13.973Z,97.10
2018-12-23T10:54:44.528Z,97.10
2018-12-23T10:57:15.315Z,97.00
2018-12-23T10:59:44.972Z,97.20
2018-12-23T11:02:15.434Z,97.80
2018-12-23T11:04:45.558Z,98.60
2018-12-23T11:07:16.018Z,99.20
2018-12-23T11:09:46.511Z,99.70
2018-12-23T11:12:17.089Z,99.90
2018-12-23T11:14:47.766Z,99.90
2018-12-23T11:17:18.766Z,99.90
2018-12-23T11:19:49.368Z,99.90
2018-12-23T11:22:20.481Z,99.90
2018-12-23T11:24:50.749Z,99.90
2018-12-23T11:27:20.473Z,99.90
2018-12-23T11:30:20.018Z,99.90
2018-12-23T11:32:50.406Z,99.90
2018-12-23T11:35:20.585Z,99.90
2018-12-23T11:37:50.759Z,99.90
2018-12-23T11:40:26.864Z,99.90
2018-12-23T11:43:11.905Z,99.90
2018-12-23T11:45:43.021Z,99.90
2018-12-23T11:48:13.104Z,99.90
2018-12-23T11:50:43.642Z,99.90
2018-12-23T11:53:13.502Z,99.90
2018-12-23T11:55:43.907Z,99.90
2018-12-23T11:58:13.888Z,99.90
2018-12-23T12:00:43.995Z,99.90
2018-12-23T12:03:15.063Z,99.90
2018-12-23T12:05:48.233Z,99.90
2018-12-23T12:08:18.343Z,99.90
2018-12-23T12:10:48.222Z,99.90
2018-12-23T12:13:19.626Z,99.90
2018-12-23T12:15:49.913Z,99.90
2018-12-23T12:18:19.958Z,99.90
2018-12-23T12:20:49.993Z,99.90
2018-12-23T12:23:19.374Z,99.90
2018-12-23T12:25:48.939Z,99.90
2018-12-23T12:28:18.598Z,99.90
2018-12-23T12:30:48.739Z,99.90
2018-12-23T12:33:18.866Z,99.90
2018-12-23T12:35:49.227Z,99.90
2018-12-23T12:38:20.269Z,99.90
2018-12-23T12:40:50.000Z,99.90
2018-12-23T12:43:20.323Z,99.90
2018-12-23T12:45:50.780Z,99.90
2018-12-23T12:48:21.009Z,99.90
2018-12-23T12:50:51.119Z,99.90
2018-12-23T12:53:21.529Z,99.90
2018-12-23T12:55:51.994Z,99.90
2018-12-23T12:58:22.537Z,99.90
2018-12-23T13:00:53.251Z,99.90
2018-12-23T13:03:25.898Z,99.90
2018-12-23T13:05:56.478Z,99.90
2018-12-23T13:08:27.163Z,99.90
2018-12-23T13:10:56.765Z,99.90
2018-12-23T13:13:26.520Z,99.90
2018-12-23T13:15:56.682Z,99.90
2018-12-23T13:18:26.773Z,99.90
2018-12-23T13:20:56.711Z,99.90
2018-12-23T13:23:26.664Z,99.90
2018-12-23T13:25:57.209Z,99.90
2018-12-23T13:28:27.816Z,99.90
2018-12-23T13:30:58.464Z,99.90
2018-12-23T13:33:28.488Z,99.90
2018-12-23T13:35:59.207Z,99.90
2018-12-23T13:38:29.342Z,99.90
2018-12-23T13:41:21.827Z,99.90
2018-12-23T13:44:36.359Z,99.90
2018-12-23T13:47:35.733Z,99.90
2018-12-23T13:50:54.661Z,99.90
2018-12-23T13:54:17.022Z,99.90
2018-12-23T13:57:22.175Z,99.90
2018-12-23T14:00:35.262Z,99.90
2018-12-23T14:03:45.757Z,99.90
2018-12-23T14:07:02.781Z,99.90
2018-12-23T14:10:08.204Z,99.90
2018-12-23T14:12:37.662Z,99.90
2018-12-23T14:15:07.311Z,99.90
2018-12-23T14:17:36.740Z,99.90
2018-12-23T14:20:07.017Z,99.90
2018-12-23T14:22:36.784Z,99.90
2018-12-23T14:25:06.398Z,99.90
2018-12-23T14:27:36.206Z,99.90
2018-12-23T14:30:06.082Z,99.90
2018-12-23T14:32:35.466Z,99.90
2018-12-23T14:35:04.960Z,99.90
2018-12-23T14:37:34.783Z,99.90
2018-12-23T14:40:05.064Z,99.90
2018-12-23T14:42:34.872Z,99.90
2018-12-23T14:45:04.981Z,99.90
2018-12-23T14:47:34.738Z,99.90
2018-12-23T14:50:04.883Z,99.90
2018-12-23T14:52:35.005Z,99.90
2018-12-23T14:55:04.738Z,99.90
2018-12-23T14:57:34.877Z,99.90
2018-12-23T15:00:05.626Z,99.90
2018-12-23T15:02:35.902Z,99.90
2018-12-23T15:05:06.167Z,99.90
2018-12-23T15:07:42.128Z,99.90
2018-12-23T15:10:12.133Z,99.90
2018-12-23T15:12:42.414Z,99.90
2018-12-23T15:15:13.993Z,99.90
2018-12-23T15:17:44.432Z,99.90
2018-12-23T15:20:14.322Z,99.90
2018-12-23T15:22:44.856Z,99.90
2018-12-23T15:25:15.093Z,99.90
2018-12-23T15:27:45.249Z,99.90
2018-12-23T15:30:15.475Z,99.90
2018-12-23T15:32:45.885Z,99.90
2018-12-23T15:35:16.067Z,99.90
2018-12-23T15:37:46.486Z,99.90
2018-12-23T15:40:17.005Z,99.90
2018-12-23T15:42:46.825Z,99.90
2018-12-23T15:45:17.083Z,99.90
2018-12-23T15:47:47.261Z,99.90
2018-12-23T15:50:17.187Z,99.90
2018-12-23T15:52:48.415Z,99.90
2018-12-23T15:55:19.032Z,99.90
2018-12-23T15:57:49.214Z,99.90
2018-12-23T16:00:18.905Z,99.90
2018-12-23T16:02:48.952Z,99.90
2018-12-23T16:05:19.748Z,99.90
2018-12-23T16:07:49.504Z,99.90
2018-12-23T16:10:20.093Z,99.90
2018-12-23T16:12:51.310Z,99.90
2018-12-23T16:15:21.614Z,99.90
2018-12-23T16:17:51.866Z,99.90
2018-12-23T16:20:23.063Z,99.90
2018-12-23T16:22:53.425Z,99.90
2018-12-23T16:25:23.834Z,99.90
2018-12-23T16:27:53.833Z,99.90
2018-12-23T16:30:23.601Z,99.90
2018-12-23T16:32:53.642Z,99.90
2018-12-23T16:35:24.337Z,99.90
2018-12-23T16:37:54.411Z,99.90
2018-12-23T16:40:24.368Z,99.90
2018-12-23T16:42:54.048Z,99.90
2018-12-23T16:45:23.853Z,99.90
2018-12-23T16:47:54.385Z,99.90
2018-12-23T16:50:24.646Z,99.90
2018-12-23T16:52:54.866Z,99.90
2018-12-23T16:55:24.864Z,99.90
2018-12-23T16:57:55.824Z,99.90
2018-12-23T17:00:26.012Z,99.90
2018-12-23T17:02:56.744Z,99.90
2018-12-23T17:05:26.898Z,99.90
2018-12-23T17:07:57.763Z,99.90
2018-12-23T17:10:27.692Z,99.90
2018-12-23T17:12:57.491Z,99.90
2018-12-23T17:15:26.953Z,99.90
2018-12-23T17:17:57.462Z,99.90
2018-12-23T17:20:27.150Z,99.90
2018-12-23T17:22:56.680Z,99.90
2018-12-23T17:25:26.514Z,99.90
2018-12-23T17:27:56.450Z,99.90
2018-12-23T17:30:26.603Z,99.90
2018-12-23T17:32:55.952Z,99.90
2018-12-23T17:35:25.411Z,99.90
2018-12-23T17:37:55.729Z,99.90
2018-12-23T17:40:25.130Z,99.90
2018-12-23T17:42:54.749Z,99.90
2018-12-23T17:45:24.926Z,99.90
2018-12-23T17:47:54.750Z,99.90
2018-12-23T17:50:24.908Z,99.90
2018-12-23T17:52:54.789Z,99.90
2018-12-23T17:55:24.183Z,99.90
2018-12-23T17:57:53.687Z,99.90
2018-12-23T18:00:23.420Z,99.90
2018-12-23T18:02:52.730Z,99.90
2018-12-23T18:05:22.528Z,99.90
2018-12-23T18:07:52.023Z,99.90
2018-12-23T18:10:25.160Z,99.90
2018-12-23T18:12:52.718Z,99.90
2018-12-23T18:15:22.222Z,99.90
2018-12-23T18:17:51.754Z,99.90
2018-12-23T18:20:21.306Z,99.90
2018-12-23T18:22:50.740Z,99.90
2018-12-23T18:25:20.303Z,99.90
2018-12-23T18:27:50.512Z,99.90
2018-12-23T18:30:19.975Z,99.90
2018-12-23T18:32:49.475Z,99.90
2018-12-23T18:35:18.996Z,99.90
2018-12-23T18:37:49.042Z,99.90
2018-12-23T18:40:18.517Z,99.90
2018-12-23T18:42:48.498Z,99.90
2018-12-23T18:45:17.853Z,99.90
2018-12-23T18:47:47.712Z,99.90
2018-12-23T18:50:17.597Z,99.90
2018-12-23T18:52:50.662Z,99.90
2018-12-23T18:55:19.960Z,99.90
2018-12-23T18:57:50.533Z,99.90
2018-12-23T19:00:19.994Z,99.90
2018-12-23T19:02:59.380Z,99.90
2018-12-23T19:05:28.967Z,99.90
2018-12-23T19:08:02.710Z,99.90
2018-12-23T19:11:13.787Z,99.90
2018-12-23T19:14:36.207Z,99.90
2018-12-23T19:17:32.379Z,99.90
2018-12-23T19:20:39.951Z,99.90
2018-12-23T19:23:33.555Z,99.90
2018-12-23T19:26:35.788Z,99.90
2018-12-23T19:30:04.621Z,99.90
2018-12-23T19:33:10.628Z,99.90
2018-12-23T19:36:11.668Z,99.90
2018-12-23T19:39:18.500Z,99.90
2018-12-23T19:42:42.897Z,99.90
2018-12-23T19:45:48.447Z,99.90
2018-12-23T19:48:55.562Z,99.90
2018-12-23T19:51:53.217Z,99.90
2018-12-23T19:54:59.592Z,99.90
2018-12-23T19:58:05.816Z,99.90
2018-12-23T20:01:09.927Z,99.90
2018-12-23T20:04:23.386Z,99.90
2018-12-23T20:07:45.829Z,99.90
2018-12-23T20:10:59.001Z,99.90
2018-12-23T20:13:52.016Z,99.90
2018-12-23T20:17:05.089Z,99.90
2018-12-23T20:20:15.543Z,99.90
2018-12-23T20:23:31.576Z,99.90
2018-12-23T20:26:39.445Z,99.90
2018-12-23T20:29:53.095Z,99.90
2018-12-23T20:32:40.157Z,99.90
2018-12-23T20:35:37.359Z,99.90
2018-12-23T20:38:35.955Z,99.90
2018-12-23T20:41:48.233Z,99.90
2018-12-23T20:45:12.977Z,99.90
2018-12-23T20:48:26.985Z,99.90
2018-12-23T20:51:44.421Z,99.90
2018-12-23T20:54:52.314Z,99.90
2018-12-23T20:57:49.274Z,99.90
2018-12-23T21:01:13.592Z,99.90
2018-12-23T21:04:10.516Z,99.90
2018-12-23T21:07:16.444Z,99.90
2018-12-23T21:10:06.955Z,99.90
2018-12-23T21:13:23.490Z,99.90
2018-12-23T21:16:29.695Z,99.90
2018-12-23T21:19:50.781Z,99.90
2018-12-23T21:23:07.748Z,99.90
2018-12-23T21:26:15.518Z,99.90
2018-12-23T21:29:05.927Z,99.90
2018-12-23T21:32:05.085Z,99.90
2018-12-23T21:35:33.842Z,99.90
2018-12-23T21:38:52.255Z,99.90
2018-12-23T21:42:05.039Z,99.90
2018-12-23T21:45:10.749Z,99.90
2018-12-23T21:48:13.886Z,99.90
2018-12-23T21:51:05.530Z,99.90
2018-12-23T21:54:26.742Z,99.90
2018-12-23T21:57:45.512Z,99.90
2018-12-23T22:00:57.949Z,99.90
2018-12-23T22:04:03.132Z,99.90
2018-12-23T22:07:15.828Z,99.90
2018-12-23T22:10:13.336Z,99.90
2018-12-23T22:13:19.660Z,99.90
2018-12-23T22:15:49.051Z,99.90
2018-12-23T22:18:18.805Z,99.90
2018-12-23T22:20:48.537Z,99.90
2018-12-23T22:23:17.931Z,99.90
2018-12-23T22:25:47.646Z,99.90
2018-12-23T22:28:18.155Z,99.90
2018-12-23T22:30:47.982Z,99.90
2018-12-23T22:33:17.646Z,99.90
2018-12-23T22:35:47.175Z,99.90
2018-12-23T22:38:16.901Z,99.90
2018-12-23T22:40:56.982Z,99.90
2018-12-23T22:43:26.979Z,99.90
2018-12-23T22:45:56.519Z,99.90
2018-12-23T22:48:26.318Z,99.90
2018-12-23T22:50:56.326Z,99.90
2018-12-23T22:53:25.748Z,99.90
2018-12-23T22:55:55.481Z,99.90
2018-12-23T22:58:24.881Z,99.90
2018-12-23T23:00:54.454Z,99.90
2018-12-23T23:03:24.544Z,99.90
2018-12-23T23:05:54.214Z,99.90
2018-12-23T23:08:23.846Z,99.90
2018-12-23T23:10:54.097Z,99.90
2018-12-23T23:13:23.674Z,99.90
2018-12-23T23:15:53.093Z,99.90
2018-12-23T23:18:22.381Z,99.90
2018-12-23T23:20:55.164Z,99.90
2018-12-23T23:23:31.654Z,99.90
2018-12-23T23:26:05.999Z,99.90
2018-12-23T23:28:36.088Z,99.90
2018-12-23T23:31:05.561Z,99.90
2018-12-23T23:33:34.950Z,99.90
2018-12-23T23:36:09.032Z,99.90
2018-12-23T23:38:38.862Z,99.90
2018-12-23T23:41:08.277Z,99.90
2018-12-23T23:43:37.563Z,99.90
2018-12-23T23:46:07.622Z,99.90
2018-12-23T23:48:37.012Z,99.90
2018-12-23T23:51:06.446Z,99.90
2018-12-23T23:53:36.135Z,99.90
2018-12-23T23:56:05.551Z,99.90
2018-12-23T23:58:35.363Z,99.90
